sensor_id;sensor_type;location;lat;lon;timestamp;pressure;altitude;pressure_sealevel;temperature;humidity
43770;BME280;6597;52.218;9.882;2024-03-23T00:53:23;100068.25;;;6.26;100.00
43770;BME280;6597;52.218;9.882;2024-03-23T00:55:49;100058.69;;;6.27;100.00
43770;BME280;6597;52.218;9.882;2024-03-23T00:58:16;100055.22;;;6.26;100.00
43770;BME280;6597;52.218;9.882;2024-03-23T01:00:41;100053.56;;;6.23;100.00
43770;BME280;6597;52.218;9.882;2024-03-23T01:03:08;100051.81;;;6.24;100.00
43770;BME280;6597;52.218;9.882;2024-03-23T01:05:34;100045.69;;;6.25;100.00
43770;BME280;6597;52.218;9.882;2024-03-23T01:08:00;100054.31;;;6.27;100.00
43770;BME280;6597;52.218;9.882;2024-03-23T01:10:28;100039.53;;;6.28;100.00
43770;BME280;6597;52.218;9.882;2024-03-23T01:12:56;100030.09;;;6.23;100.00
43770;BME280;6597;52.218;9.882;2024-03-23T01:15:21;100019.72;;;6.22;100.00
43770;BME280;6597;52.218;9.882;2024-03-23T01:17:48;100025.78;;;6.22;100.00
43770;BME280;6597;52.218;9.882;2024-03-23T01:20:14;100018.91;;;6.20;100.00
43770;BME280;6597;52.218;9.882;2024-03-23T01:22:41;100021.47;;;6.21;100.00
43770;BME280;6597;52.218;9.882;2024-03-23T01:25:07;100017.16;;;6.20;100.00
43770;BME280;6597;52.218;9.882;2024-03-23T01:27:35;100016.34;;;6.18;100.00
43770;BME280;6597;52.218;9.882;2024-03-23T01:30:00;100013.75;;;6.18;100.00
43770;BME280;6597;52.218;9.882;2024-03-23T01:32:27;100010.28;;;6.18;100.00
43770;BME280;6597;52.218;9.882;2024-03-23T01:34:53;100004.16;;;6.19;100.00
43770;BME280;6597;52.218;9.882;2024-03-23T01:37:19;99998.00;;;6.21;100.00
43770;BME280;6597;52.218;9.882;2024-03-23T01:39:45;100002.41;;;6.19;100.00
43770;BME280;6597;52.218;9.882;2024-03-23T01:42:12;100000.72;;;6.17;100.00
43770;BME280;6597;52.218;9.882;2024-03-23T01:44:40;99993.81;;;6.16;100.00
43770;BME280;6597;52.218;9.882;2024-03-23T01:47:07;100006.03;;;6.14;100.00
43770;BME280;6597;52.218;9.882;2024-03-23T01:49:33;99995.66;;;6.12;100.00
43770;BME280;6597;52.218;9.882;2024-03-23T01:52:00;99995.69;;;6.11;100.00
43770;BME280;6597;52.218;9.882;2024-03-23T01:54:26;99986.19;;;6.10;100.00
43770;BME280;6597;52.218;9.882;2024-03-23T01:56:54;99980.16;;;6.08;100.00
43770;BME280;6597;52.218;9.882;2024-03-23T01:59:20;99981.09;;;6.05;100.00
43770;BME280;6597;52.218;9.882;2024-03-23T02:01:48;99978.53;;;6.04;100.00
43770;BME280;6597;52.218;9.882;2024-03-23T02:04:13;99981.25;;;6.01;100.00
43770;BME280;6597;52.218;9.882;2024-03-23T02:06:40;99983.94;;;5.98;100.00
43770;BME280;6597;52.218;9.882;2024-03-23T02:09:06;99976.06;;;5.99;100.00
43770;BME280;6597;52.218;9.882;2024-03-23T02:11:33;99969.03;;;6.03;100.00
43770;BME280;6597;52.218;9.882;2024-03-23T02:13:59;99968.13;;;6.04;100.00
43770;BME280;6597;52.218;9.882;2024-03-23T02:16:34;99953.25;;;6.07;100.00
43770;BME280;6597;52.218;9.882;2024-03-23T02:19:00;99958.47;;;6.07;100.00
43770;BME280;6597;52.218;9.882;2024-03-23T02:21:26;99954.19;;;6.05;100.00
43770;BME280;6597;52.218;9.882;2024-03-23T02:23:58;99948.88;;;6.08;100.00
43770;BME280;6597;52.218;9.882;2024-03-23T02:26:24;99954.09;;;6.08;100.00
43770;BME280;6597;52.218;9.882;2024-03-23T02:28:51;99951.50;;;6.08;100.00
43770;BME280;6597;52.218;9.882;2024-03-23T02:31:16;99940.19;;;6.09;100.00
43770;BME280;6597;52.218;9.882;2024-03-23T02:33:43;99940.19;;;6.09;100.00
43770;BME280;6597;52.218;9.882;2024-03-23T02:36:09;99934.19;;;6.05;100.00
43770;BME280;6597;52.218;9.882;2024-03-23T02:38:35;99924.72;;;6.03;100.00
43770;BME280;6597;52.218;9.882;2024-03-23T02:41:04;99927.38;;;6.01;100.00
43770;BME280;6597;52.218;9.882;2024-03-23T02:43:31;99926.72;;;5.95;100.00
43770;BME280;6597;52.218;9.882;2024-03-23T02:45:57;99932.78;;;5.95;100.00
43770;BME280;6597;52.218;9.882;2024-03-23T02:48:23;99923.22;;;5.96;100.00
43770;BME280;6597;52.218;9.882;2024-03-23T02:50:49;99912.78;;;5.96;100.00
43770;BME280;6597;52.218;9.882;2024-03-23T02:53:16;99912.69;;;5.99;100.00
43770;BME280;6597;52.218;9.882;2024-03-23T02:55:42;99920.47;;;6.00;100.00
43770;BME280;6597;52.218;9.882;2024-03-23T02:58:11;99914.31;;;6.03;100.00
43770;BME280;6597;52.218;9.882;2024-03-23T03:00:37;99910.81;;;6.04;100.00
43770;BME280;6597;52.218;9.882;2024-03-23T03:03:04;99905.59;;;6.04;100.00
43770;BME280;6597;52.218;9.882;2024-03-23T03:05:30;99903.97;;;6.00;100.00
43770;BME280;6597;52.218;9.882;2024-03-23T03:07:56;99901.38;;;6.00;100.00
43770;BME280;6597;52.218;9.882;2024-03-23T03:10:22;99910.00;;;6.02;100.00
43770;BME280;6597;52.218;9.882;2024-03-23T03:12:49;99895.31;;;5.99;100.00
43770;BME280;6597;52.218;9.882;2024-03-23T03:15:16;99895.28;;;6.01;100.00
43770;BME280;6597;52.218;9.882;2024-03-23T03:17:42;99893.50;;;6.01;100.00
43770;BME280;6597;52.218;9.882;2024-03-23T03:20:09;99889.16;;;6.02;100.00
43770;BME280;6597;52.218;9.882;2024-03-23T03:22:38;99890.06;;;6.01;100.00
43770;BME280;6597;52.218;9.882;2024-03-23T03:25:05;99896.22;;;5.98;100.00
43770;BME280;6597;52.218;9.882;2024-03-23T03:27:33;99895.28;;;6.01;100.00
43770;BME280;6597;52.218;9.882;2024-03-23T03:29:59;99882.25;;;6.01;100.00
43770;BME280;6597;52.218;9.882;2024-03-23T03:32:29;99887.34;;;6.04;100.00
43770;BME280;6597;52.218;9.882;2024-03-23T03:34:54;99887.25;;;6.07;100.00
43770;BME280;6597;52.218;9.882;2024-03-23T03:37:21;99891.75;;;6.02;100.00
43770;BME280;6597;52.218;9.882;2024-03-23T03:39:47;99888.31;;;6.01;100.00
43770;BME280;6597;52.218;9.882;2024-03-23T03:42:14;99890.84;;;6.03;100.00
43770;BME280;6597;52.218;9.882;2024-03-23T03:44:40;99898.69;;;6.03;100.00
43770;BME280;6597;52.218;9.882;2024-03-23T03:47:06;99898.63;;;6.04;100.00
43770;BME280;6597;52.218;9.882;2024-03-23T03:49:34;99896.06;;;6.03;100.00
43770;BME280;6597;52.218;9.882;2024-03-23T03:52:00;99890.84;;;6.03;100.00
43770;BME280;6597;52.218;9.882;2024-03-23T03:54:27;99884.09;;;5.97;100.00
43770;BME280;6597;52.218;9.882;2024-03-23T03:56:54;99887.53;;;5.98;100.00
43770;BME280;6597;52.218;9.882;2024-03-23T03:59:20;99889.34;;;5.96;100.00
43770;BME280;6597;52.218;9.882;2024-03-23T04:01:46;99891.19;;;5.92;100.00
43770;BME280;6597;52.218;9.882;2024-03-23T04:04:12;99876.47;;;5.91;100.00
43770;BME280;6597;52.218;9.882;2024-03-23T04:06:43;99875.63;;;5.90;100.00
43770;BME280;6597;52.218;9.882;2024-03-23T04:09:09;99879.13;;;5.88;100.00
43770;BME280;6597;52.218;9.882;2024-03-23T04:11:35;99877.69;;;5.78;100.00
43770;BME280;6597;52.218;9.882;2024-03-23T04:14:01;99875.13;;;5.76;100.00
43770;BME280;6597;52.218;9.882;2024-03-23T04:16:29;99866.44;;;5.76;100.00
43770;BME280;6597;52.218;9.882;2024-03-23T04:18:55;99864.13;;;5.67;100.00
43770;BME280;6597;52.218;9.882;2024-03-23T04:21:22;99863.28;;;5.66;100.00
43770;BME280;6597;52.218;9.882;2024-03-23T04:23:49;99866.06;;;5.60;100.00
43770;BME280;6597;52.218;9.882;2024-03-23T04:26:16;99852.25;;;5.58;100.00
43770;BME280;6597;52.218;9.882;2024-03-23T04:28:42;99854.88;;;5.56;100.00
43770;BME280;6597;52.218;9.882;2024-03-23T04:31:09;99849.84;;;5.50;100.00
43770;BME280;6597;52.218;9.882;2024-03-23T04:33:34;99852.38;;;5.52;100.00
43770;BME280;6597;52.218;9.882;2024-03-23T04:36:01;99852.53;;;5.47;100.00
43770;BME280;6597;52.218;9.882;2024-03-23T04:38:28;99850.69;;;5.51;100.00
43770;BME280;6597;52.218;9.882;2024-03-23T04:40:56;99848.94;;;5.51;100.00
43770;BME280;6597;52.218;9.882;2024-03-23T04:43:23;99850.88;;;5.45;100.00
43770;BME280;6597;52.218;9.882;2024-03-23T04:45:50;99841.50;;;5.39;100.00
43770;BME280;6597;52.218;9.882;2024-03-23T04:48:19;99839.78;;;5.38;100.00
43770;BME280;6597;52.218;9.882;2024-03-23T04:50:45;99845.03;;;5.37;100.00
43770;BME280;6597;52.218;9.882;2024-03-23T04:53:12;99836.50;;;5.31;100.00
43770;BME280;6597;52.218;9.882;2024-03-23T04:55:39;99832.25;;;5.29;100.00
43770;BME280;6597;52.218;9.882;2024-03-23T04:58:07;99841.84;;;5.27;100.00
43770;BME280;6597;52.218;9.882;2024-03-23T05:00:34;99840.00;;;5.30;100.00
43770;BME280;6597;52.218;9.882;2024-03-23T05:03:00;99826.16;;;5.30;100.00
43770;BME280;6597;52.218;9.882;2024-03-23T05:05:26;99835.63;;;5.32;100.00
43770;BME280;6597;52.218;9.882;2024-03-23T05:07:53;99838.13;;;5.36;100.00
43770;BME280;6597;52.218;9.882;2024-03-23T05:10:19;99831.13;;;5.38;100.00
43770;BME280;6597;52.218;9.882;2024-03-23T05:12:45;99819.78;;;5.40;100.00
43770;BME280;6597;52.218;9.882;2024-03-23T05:15:12;99830.22;;;5.39;100.00
43770;BME280;6597;52.218;9.882;2024-03-23T05:17:39;99820.63;;;5.41;100.00
43770;BME280;6597;52.218;9.882;2024-03-23T05:20:05;99818.81;;;5.43;100.00
43770;BME280;6597;52.218;9.882;2024-03-23T05:22:35;99817.16;;;5.40;100.00
43770;BME280;6597;52.218;9.882;2024-03-23T05:25:01;99812.78;;;5.42;100.00
43770;BME280;6597;52.218;9.882;2024-03-23T05:27:30;99808.50;;;5.40;100.00
43770;BME280;6597;52.218;9.882;2024-03-23T05:29:55;99809.38;;;5.40;100.00
43770;BME280;6597;52.218;9.882;2024-03-23T05:32:23;99813.63;;;5.43;100.00
43770;BME280;6597;52.218;9.882;2024-03-23T05:34:49;99819.69;;;5.43;100.00
43770;BME280;6597;52.218;9.882;2024-03-23T05:37:21;99830.84;;;5.47;100.00
43770;BME280;6597;52.218;9.882;2024-03-23T05:39:46;99838.66;;;5.47;100.00
43770;BME280;6597;52.218;9.882;2024-03-23T05:42:15;99838.72;;;5.45;100.00
43770;BME280;6597;52.218;9.882;2024-03-23T05:44:42;99832.47;;;5.51;100.00
43770;BME280;6597;52.218;9.882;2024-03-23T05:47:09;99837.75;;;5.48;100.00
43770;BME280;6597;52.218;9.882;2024-03-23T05:49:36;99835.25;;;5.45;100.00
43770;BME280;6597;52.218;9.882;2024-03-23T05:52:03;99828.53;;;5.38;100.00
43770;BME280;6597;52.218;9.882;2024-03-23T05:54:29;99833.16;;;5.28;100.00
43770;BME280;6597;52.218;9.882;2024-03-23T05:56:55;99840.28;;;5.20;100.00
43770;BME280;6597;52.218;9.882;2024-03-23T05:59:21;99836.28;;;5.08;100.00
43770;BME280;6597;52.218;9.882;2024-03-23T06:01:48;99831.63;;;4.88;100.00
43770;BME280;6597;52.218;9.882;2024-03-23T06:04:14;99826.00;;;4.71;100.00
43770;BME280;6597;52.218;9.882;2024-03-23T06:06:42;99831.63;;;4.56;100.00
43770;BME280;6597;52.218;9.882;2024-03-23T06:09:08;99837.06;;;4.45;100.00
43770;BME280;6597;52.218;9.882;2024-03-23T06:11:35;99833.72;;;4.40;100.00
43770;BME280;6597;52.218;9.882;2024-03-23T06:14:00;99831.13;;;4.40;100.00
43770;BME280;6597;52.218;9.882;2024-03-23T06:16:27;99830.25;;;4.41;100.00
43770;BME280;6597;52.218;9.882;2024-03-23T06:18:53;99828.41;;;4.45;100.00
43770;BME280;6597;52.218;9.882;2024-03-23T06:21:20;99816.28;;;4.45;100.00
43770;BME280;6597;52.218;9.882;2024-03-23T06:23:47;99821.50;;;4.44;100.00
43770;BME280;6597;52.218;9.882;2024-03-23T06:26:17;99826.75;;;4.42;100.00
43770;BME280;6597;52.218;9.882;2024-03-23T06:28:42;99828.41;;;4.45;100.00
43770;BME280;6597;52.218;9.882;2024-03-23T06:31:09;99823.91;;;4.51;100.00
43770;BME280;6597;52.218;9.882;2024-03-23T06:33:35;99817.72;;;4.57;100.00
43770;BME280;6597;52.218;9.882;2024-03-23T06:36:02;99812.38;;;4.63;100.00
43770;BME280;6597;52.218;9.882;2024-03-23T06:38:28;99816.56;;;4.68;100.00
43770;BME280;6597;52.218;9.882;2024-03-23T06:40:56;99822.47;;;4.74;100.00
43770;BME280;6597;52.218;9.882;2024-03-23T06:43:22;99830.19;;;4.77;100.00
43770;BME280;6597;52.218;9.882;2024-03-23T06:45:52;99825.03;;;4.75;100.00
43770;BME280;6597;52.218;9.882;2024-03-23T06:48:18;99818.22;;;4.71;100.00
43770;BME280;6597;52.218;9.882;2024-03-23T06:50:46;99819.97;;;4.71;100.00
43770;BME280;6597;52.218;9.882;2024-03-23T06:53:11;99826.09;;;4.68;100.00
43770;BME280;6597;52.218;9.882;2024-03-23T06:55:38;99826.06;;;4.69;100.00
43770;BME280;6597;52.218;9.882;2024-03-23T06:58:05;99834.84;;;4.65;100.00
43770;BME280;6597;52.218;9.882;2024-03-23T07:00:32;99827.94;;;4.64;100.00
43770;BME280;6597;52.218;9.882;2024-03-23T07:02:58;99819.28;;;4.64;100.00
43770;BME280;6597;52.218;9.882;2024-03-23T07:05:24;99820.97;;;4.65;100.00
43770;BME280;6597;52.218;9.882;2024-03-23T07:07:50;99832.09;;;4.70;100.00
43770;BME280;6597;52.218;9.882;2024-03-23T07:10:17;99833.00;;;4.69;100.00
43770;BME280;6597;52.218;9.882;2024-03-23T07:12:43;99835.59;;;4.69;100.00
43770;BME280;6597;52.218;9.882;2024-03-23T07:15:11;99830.34;;;4.71;100.00
43770;BME280;6597;52.218;9.882;2024-03-23T07:17:37;99826.81;;;4.73;100.00
43770;BME280;6597;52.218;9.882;2024-03-23T07:20:04;99827.38;;;4.84;100.00
43770;BME280;6597;52.218;9.882;2024-03-23T07:22:30;99815.00;;;4.94;100.00
43770;BME280;6597;52.218;9.882;2024-03-23T07:24:57;99812.16;;;5.03;100.00
43770;BME280;6597;52.218;9.882;2024-03-23T07:27:22;99812.88;;;5.08;100.00
43770;BME280;6597;52.218;9.882;2024-03-23T07:29:49;99820.41;;;5.17;100.00
43770;BME280;6597;52.218;9.882;2024-03-23T07:32:16;99818.56;;;5.22;100.00
43770;BME280;6597;52.218;9.882;2024-03-23T07:34:43;99822.72;;;5.28;100.00
43770;BME280;6597;52.218;9.882;2024-03-23T07:37:09;99829.47;;;5.35;100.00
43770;BME280;6597;52.218;9.882;2024-03-23T07:39:36;99820.44;;;5.47;100.00
43770;BME280;6597;52.218;9.882;2024-03-23T07:42:02;99827.09;;;5.57;100.00
43770;BME280;6597;52.218;9.882;2024-03-23T07:44:29;99833.84;;;5.64;100.00
43770;BME280;6597;52.218;9.882;2024-03-23T07:46:55;99830.41;;;5.62;100.00
43770;BME280;6597;52.218;9.882;2024-03-23T07:49:23;99833.13;;;5.59;100.00
43770;BME280;6597;52.218;9.882;2024-03-23T07:51:49;99833.91;;;5.61;100.00
43770;BME280;6597;52.218;9.882;2024-03-23T07:54:15;99840.75;;;5.65;100.00
43770;BME280;6597;52.218;9.882;2024-03-23T07:56:41;99822.66;;;5.60;100.00
43770;BME280;6597;52.218;9.882;2024-03-23T07:59:08;99826.16;;;5.59;100.00
43770;BME280;6597;52.218;9.882;2024-03-23T08:01:33;99827.16;;;5.55;100.00
43770;BME280;6597;52.218;9.882;2024-03-23T08:04:00;99820.41;;;5.48;100.00
43770;BME280;6597;52.218;9.882;2024-03-23T08:06:28;99826.44;;;5.49;100.00
43770;BME280;6597;52.218;9.882;2024-03-23T08:08:57;99831.75;;;5.46;100.00
43770;BME280;6597;52.218;9.882;2024-03-23T08:11:25;99823.13;;;5.44;100.00
43770;BME280;6597;52.218;9.882;2024-03-23T08:13:52;99816.31;;;5.40;100.00
43770;BME280;6597;52.218;9.882;2024-03-23T08:16:18;99818.69;;;5.47;100.00
43770;BME280;6597;52.218;9.882;2024-03-23T08:18:44;99820.31;;;5.51;100.00
43770;BME280;6597;52.218;9.882;2024-03-23T08:21:10;99820.75;;;5.66;100.00
43770;BME280;6597;52.218;9.882;2024-03-23T08:23:39;99813.63;;;5.72;100.00
43770;BME280;6597;52.218;9.882;2024-03-23T08:26:06;99807.25;;;5.81;100.00
43770;BME280;6597;52.218;9.882;2024-03-23T08:28:32;99821.72;;;5.92;100.00
43770;BME280;6597;52.218;9.882;2024-03-23T08:31:00;99820.56;;;6.01;100.00
43770;BME280;6597;52.218;9.882;2024-03-23T08:33:27;99822.81;;;6.12;100.00
43770;BME280;6597;52.218;9.882;2024-03-23T08:35:54;99832.03;;;6.23;100.00
43770;BME280;6597;52.218;9.882;2024-03-23T08:38:21;99828.22;;;6.34;100.00
43770;BME280;6597;52.218;9.882;2024-03-23T08:40:56;99828.47;;;6.52;100.00
43770;BME280;6597;52.218;9.882;2024-03-23T08:43:23;99828.91;;;6.65;100.00
43770;BME280;6597;52.218;9.882;2024-03-23T08:45:48;99828.75;;;6.95;100.00
43770;BME280;6597;52.218;9.882;2024-03-23T08:48:15;99825.22;;;7.21;100.00
43770;BME280;6597;52.218;9.882;2024-03-23T08:50:41;99825.75;;;7.30;100.00
43770;BME280;6597;52.218;9.882;2024-03-23T08:53:08;99823.53;;;7.43;100.00
43770;BME280;6597;52.218;9.882;2024-03-23T08:55:34;99830.50;;;7.66;100.00
43770;BME280;6597;52.218;9.882;2024-03-23T08:58:02;99820.09;;;8.09;100.00
43770;BME280;6597;52.218;9.882;2024-03-23T09:00:29;99827.41;;;8.65;100.00
43770;BME280;6597;52.218;9.882;2024-03-23T09:02:57;99823.31;;;8.80;100.00
43770;BME280;6597;52.218;9.882;2024-03-23T09:05:22;99826.31;;;9.12;100.00
43770;BME280;6597;52.218;9.882;2024-03-23T09:07:50;99833.16;;;9.53;100.00
43770;BME280;6597;52.218;9.882;2024-03-23T09:10:16;99828.91;;;9.70;94.82
43770;BME280;6597;52.218;9.882;2024-03-23T09:12:43;99830.91;;;9.46;91.37
43770;BME280;6597;52.218;9.882;2024-03-23T09:15:10;99828.03;;;9.31;91.65
43770;BME280;6597;52.218;9.882;2024-03-23T09:17:36;99826.19;;;8.94;91.84
43770;BME280;6597;52.218;9.882;2024-03-23T09:20:02;99832.78;;;8.62;90.25
43770;BME280;6597;52.218;9.882;2024-03-23T09:22:30;99842.47;;;8.17;92.23
43770;BME280;6597;52.218;9.882;2024-03-23T09:24:55;99843.44;;;7.92;96.09
43770;BME280;6597;52.218;9.882;2024-03-23T09:27:22;99850.25;;;7.73;96.22
43770;BME280;6597;52.218;9.882;2024-03-23T09:29:48;99849.16;;;7.78;97.05
43770;BME280;6597;52.218;9.882;2024-03-23T09:32:16;99844.66;;;8.05;96.43
43770;BME280;6597;52.218;9.882;2024-03-23T09:34:42;99846.97;;;8.57;96.12
43770;BME280;6597;52.218;9.882;2024-03-23T09:37:08;99846.44;;;9.30;94.71
43770;BME280;6597;52.218;9.882;2024-03-23T09:39:34;99838.69;;;9.66;88.06
43770;BME280;6597;52.218;9.882;2024-03-23T09:42:01;99840.47;;;9.47;86.56
43770;BME280;6597;52.218;9.882;2024-03-23T09:44:26;99846.16;;;9.36;85.69
43770;BME280;6597;52.218;9.882;2024-03-23T09:46:55;99839.09;;;9.38;87.43
43770;BME280;6597;52.218;9.882;2024-03-23T09:49:22;99838.66;;;9.28;86.71
43770;BME280;6597;52.218;9.882;2024-03-23T09:51:50;99849.06;;;9.10;89.03
43770;BME280;6597;52.218;9.882;2024-03-23T09:54:16;99838.50;;;8.92;90.21
43770;BME280;6597;52.218;9.882;2024-03-23T09:56:43;99841.47;;;8.63;88.67
43770;BME280;6597;52.218;9.882;2024-03-23T09:59:09;99841.56;;;8.39;89.31
43770;BME280;6597;52.218;9.882;2024-03-23T10:01:36;99850.06;;;8.01;87.86
43770;BME280;6597;52.218;9.882;2024-03-23T10:04:03;99841.00;;;7.64;84.72
43770;BME280;6597;52.218;9.882;2024-03-23T10:06:31;99836.88;;;7.59;89.12
43770;BME280;6597;52.218;9.882;2024-03-23T10:08:56;99830.13;;;8.20;90.35
43770;BME280;6597;52.218;9.882;2024-03-23T10:11:23;99825.47;;;9.11;86.12
43770;BME280;6597;52.218;9.882;2024-03-23T10:13:50;99823.53;;;9.91;79.28
43770;BME280;6597;52.218;9.882;2024-03-23T10:16:21;99820.84;;;10.48;76.83
43770;BME280;6597;52.218;9.882;2024-03-23T10:18:47;99817.84;;;11.23;77.20
43770;BME280;6597;52.218;9.882;2024-03-23T10:21:15;99813.09;;;10.97;73.34
43770;BME280;6597;52.218;9.882;2024-03-23T10:23:43;99809.41;;;10.13;70.74
43770;BME280;6597;52.218;9.882;2024-03-23T10:26:15;99807.31;;;9.64;75.50
43770;BME280;6597;52.218;9.882;2024-03-23T10:28:51;99810.72;;;9.48;79.77
43770;BME280;6597;52.218;9.882;2024-03-23T10:31:20;99802.41;;;10.13;78.40
43770;BME280;6597;52.218;9.882;2024-03-23T10:33:46;99807.22;;;10.91;71.19
43770;BME280;6597;52.218;9.882;2024-03-23T10:36:13;99807.22;;;11.58;67.85
43770;BME280;6597;52.218;9.882;2024-03-23T10:41:09;99794.78;;;12.54;61.92
43770;BME280;6597;52.218;9.882;2024-03-23T10:43:36;99792.97;;;12.85;58.69
43770;BME280;6597;52.218;9.882;2024-03-23T10:46:03;99794.78;;;12.54;59.42
43770;BME280;6597;52.218;9.882;2024-03-23T10:48:29;99799.69;;;12.30;62.33
43770;BME280;6597;52.218;9.882;2024-03-23T10:50:56;99799.31;;;11.91;63.99
43770;BME280;6597;52.218;9.882;2024-03-23T10:53:25;99803.09;;;11.20;63.52
43770;BME280;6597;52.218;9.882;2024-03-23T10:55:54;99815.59;;;10.48;66.68
43770;BME280;6597;52.218;9.882;2024-03-23T10:58:26;99825.53;;;9.49;67.33
43770;BME280;6597;52.218;9.882;2024-03-23T11:00:54;99812.56;;;8.66;72.65
43770;BME280;6597;52.218;9.882;2024-03-23T11:03:30;99819.94;;;8.14;77.89
43770;BME280;6597;52.218;9.882;2024-03-23T11:05:57;99824.13;;;8.18;79.97
43770;BME280;6597;52.218;9.882;2024-03-23T11:08:43;99816.69;;;8.29;83.07
43770;BME280;6597;52.218;9.882;2024-03-23T11:11:12;99820.66;;;8.39;81.28
43770;BME280;6597;52.218;9.882;2024-03-23T11:13:39;99811.84;;;9.03;83.54
43770;BME280;6597;52.218;9.882;2024-03-23T11:16:13;99816.06;;;10.01;79.10
43770;BME280;6597;52.218;9.882;2024-03-23T11:18:39;99806.34;;;10.75;74.91
43770;BME280;6597;52.218;9.882;2024-03-23T11:21:07;99806.47;;;11.56;71.58
43770;BME280;6597;52.218;9.882;2024-03-23T11:23:33;99798.38;;;12.07;65.52
43770;BME280;6597;52.218;9.882;2024-03-23T11:25:59;99796.78;;;12.35;62.79
43770;BME280;6597;52.218;9.882;2024-03-23T11:28:26;99773.06;;;12.51;64.06
43770;BME280;6597;52.218;9.882;2024-03-23T11:30:53;99789.09;;;12.16;64.06
43770;BME280;6597;52.218;9.882;2024-03-23T11:33:20;99809.50;;;11.48;64.13
43770;BME280;6597;52.218;9.882;2024-03-23T11:35:45;99849.31;;;10.55;66.39
43770;BME280;6597;52.218;9.882;2024-03-23T11:38:13;99852.63;;;9.48;70.79
43770;BME280;6597;52.218;9.882;2024-03-23T11:40:40;99828.50;;;8.82;75.89
43770;BME280;6597;52.218;9.882;2024-03-23T11:43:08;99834.25;;;8.26;83.47
43770;BME280;6597;52.218;9.882;2024-03-23T11:45:36;99829.06;;;8.48;86.34
43770;BME280;6597;52.218;9.882;2024-03-23T11:48:06;99813.63;;;8.82;88.15
43770;BME280;6597;52.218;9.882;2024-03-23T11:50:32;99812.81;;;9.40;86.45
43770;BME280;6597;52.218;9.882;2024-03-23T11:53:13;99808.66;;;9.54;80.54
43770;BME280;6597;52.218;9.882;2024-03-23T11:55:41;99806.22;;;9.31;82.25
43770;BME280;6597;52.218;9.882;2024-03-23T11:58:09;99807.28;;;9.27;86.51
43770;BME280;6597;52.218;9.882;2024-03-23T12:00:34;99816.13;;;9.24;86.01
43770;BME280;6597;52.218;9.882;2024-03-23T12:03:01;99806.06;;;9.54;87.61
43770;BME280;6597;52.218;9.882;2024-03-23T12:05:29;99804.47;;;9.88;83.54
43770;BME280;6597;52.218;9.882;2024-03-23T12:07:55;99799.31;;;9.86;81.56
43770;BME280;6597;52.218;9.882;2024-03-23T12:10:40;99820.72;;;9.58;83.40
43770;BME280;6597;52.218;9.882;2024-03-23T12:13:07;99834.97;;;9.14;85.65
43770;BME280;6597;52.218;9.882;2024-03-23T12:15:33;99852.69;;;8.23;87.63
43770;BME280;6597;52.218;9.882;2024-03-23T12:18:07;99864.91;;;7.30;91.24
43770;BME280;6597;52.218;9.882;2024-03-23T12:20:34;99879.00;;;6.48;96.42
43770;BME280;6597;52.218;9.882;2024-03-23T12:23:11;99875.38;;;5.98;100.00
43770;BME280;6597;52.218;9.882;2024-03-23T12:25:41;99854.84;;;5.58;100.00
43770;BME280;6597;52.218;9.882;2024-03-23T12:28:08;99857.59;;;5.52;100.00
43770;BME280;6597;52.218;9.882;2024-03-23T12:30:35;99844.91;;;6.00;100.00
43770;BME280;6597;52.218;9.882;2024-03-23T12:33:02;99835.56;;;6.74;100.00
43770;BME280;6597;52.218;9.882;2024-03-23T12:35:28;99837.38;;;7.45;100.00
43770;BME280;6597;52.218;9.882;2024-03-23T12:37:57;99852.06;;;7.71;100.00
43770;BME280;6597;52.218;9.882;2024-03-23T12:40:22;99848.66;;;7.45;100.00
43770;BME280;6597;52.218;9.882;2024-03-23T12:42:49;99850.09;;;7.31;100.00
43770;BME280;6597;52.218;9.882;2024-03-23T12:45:15;99844.72;;;7.10;100.00
43770;BME280;6597;52.218;9.882;2024-03-23T12:47:42;99852.88;;;7.01;100.00
43770;BME280;6597;52.218;9.882;2024-03-23T12:50:08;99854.06;;;6.93;100.00
43770;BME280;6597;52.218;9.882;2024-03-23T12:52:35;99859.59;;;6.83;100.00
43770;BME280;6597;52.218;9.882;2024-03-23T12:55:02;99864.47;;;6.68;100.00
43770;BME280;6597;52.218;9.882;2024-03-23T12:57:31;99885.31;;;6.41;100.00
43770;BME280;6597;52.218;9.882;2024-03-23T12:59:57;99908.66;;;6.18;100.00
43770;BME280;6597;52.218;9.882;2024-03-23T13:02:24;99904.97;;;5.65;100.00
43770;BME280;6597;52.218;9.882;2024-03-23T13:04:50;99903.88;;;5.10;100.00
43770;BME280;6597;52.218;9.882;2024-03-23T13:07:17;99908.19;;;4.77;100.00
43770;BME280;6597;52.218;9.882;2024-03-23T13:09:43;99865.22;;;4.63;100.00
43770;BME280;6597;52.218;9.882;2024-03-23T13:12:12;99837.50;;;4.62;100.00
43770;BME280;6597;52.218;9.882;2024-03-23T13:14:38;99832.91;;;4.72;100.00
43770;BME280;6597;52.218;9.882;2024-03-23T13:17:05;99829.09;;;4.85;100.00
43770;BME280;6597;52.218;9.882;2024-03-23T13:19:31;99839.06;;;5.02;100.00
43770;BME280;6597;52.218;9.882;2024-03-23T13:21:58;99840.00;;;5.30;100.00
43770;BME280;6597;52.218;9.882;2024-03-23T13:24:24;99832.97;;;5.63;100.00
43770;BME280;6597;52.218;9.882;2024-03-23T13:26:51;99836.66;;;5.84;100.00
43770;BME280;6597;52.218;9.882;2024-03-23T13:29:19;99842.81;;;6.11;100.00
43770;BME280;6597;52.218;9.882;2024-03-23T13:31:46;99829.59;;;6.17;100.00
43770;BME280;6597;52.218;9.882;2024-03-23T13:34:12;99825.06;;;6.24;100.00
43770;BME280;6597;52.218;9.882;2024-03-23T13:36:40;99831.03;;;6.28;100.00
43770;BME280;6597;52.218;9.882;2024-03-23T13:39:06;99833.72;;;6.24;100.00
43770;BME280;6597;52.218;9.882;2024-03-23T13:41:37;99828.75;;;6.17;100.00
43770;BME280;6597;52.218;9.882;2024-03-23T13:44:04;99832.56;;;6.33;100.00
43770;BME280;6597;52.218;9.882;2024-03-23T13:46:32;99823.09;;;6.82;100.00
43770;BME280;6597;52.218;9.882;2024-03-23T13:48:58;99822.84;;;7.61;100.00
43770;BME280;6597;52.218;9.882;2024-03-23T13:51:25;99824.47;;;8.09;100.00
43770;BME280;6597;52.218;9.882;2024-03-23T13:53:52;99827.72;;;8.16;95.68
43770;BME280;6597;52.218;9.882;2024-03-23T13:56:20;99821.69;;;8.14;96.42
43770;BME280;6597;52.218;9.882;2024-03-23T13:58:45;99834.28;;;8.48;96.79
43770;BME280;6597;52.218;9.882;2024-03-23T14:01:13;99829.09;;;9.07;93.48
43770;BME280;6597;52.218;9.882;2024-03-23T14:03:41;99827.03;;;9.34;88.55
43770;BME280;6597;52.218;9.882;2024-03-23T14:06:08;99836.78;;;9.12;89.13